sensor_id;sensor_type;location;lat;lon;timestamp;pressure;altitude;pressure_sealevel;temperature;humidity
31239;BME280;17871;31.584;74.450;2023-04-05T00:02:01;98364.59;;;20.83;77.92
31239;BME280;17871;31.584;74.450;2023-04-05T00:04:30;98369.78;;;20.83;77.90
31239;BME280;17871;31.584;74.450;2023-04-05T00:07:02;98370.00;;;20.77;77.81
31239;BME280;17871;31.584;74.450;2023-04-05T00:09:36;98369.16;;;20.76;78.26
31239;BME280;17871;31.584;74.450;2023-04-05T00:12:05;98365.31;;;20.61;78.62
31239;BME280;17871;31.584;74.450;2023-04-05T00:14:34;98374.91;;;20.59;78.92
31239;BME280;17871;31.584;74.450;2023-04-05T00:17:03;98375.63;;;20.64;78.46
31239;BME280;17871;31.584;74.450;2023-04-05T00:19:32;98373.84;;;20.65;79.40
31239;BME280;17871;31.584;74.450;2023-04-05T00:22:03;98377.19;;;20.68;79.43
31239;BME280;17871;31.584;74.450;2023-04-05T00:24:32;98383.41;;;20.64;79.93
31239;BME280;17871;31.584;74.450;2023-04-05T00:27:01;98382.59;;;20.62;79.65
31239;BME280;17871;31.584;74.450;2023-04-05T00:29:30;98381.84;;;20.59;79.82
31239;BME280;17871;31.584;74.450;2023-04-05T00:31:59;98378.56;;;20.54;80.12
31239;BME280;17871;31.584;74.450;2023-04-05T00:34:28;98377.06;;;20.47;80.39
31239;BME280;17871;31.584;74.450;2023-04-05T00:36:57;98375.44;;;20.44;80.70
31239;BME280;17871;31.584;74.450;2023-04-05T00:39:26;98378.81;;;20.46;81.07
31239;BME280;17871;31.584;74.450;2023-04-05T00:41:55;98379.69;;;20.45;80.87
31239;BME280;17871;31.584;74.450;2023-04-05T00:44:24;98381.63;;;20.40;80.42
31239;BME280;17871;31.584;74.450;2023-04-05T00:46:54;98380.81;;;20.38;80.68
31239;BME280;17871;31.584;74.450;2023-04-05T00:49:23;98387.66;;;20.41;80.47
31239;BME280;17871;31.584;74.450;2023-04-05T00:51:52;98383.44;;;20.38;80.08
31239;BME280;17871;31.584;74.450;2023-04-05T00:54:23;98394.34;;;20.48;80.38
31239;BME280;17871;31.584;74.450;2023-04-05T00:56:54;98392.41;;;20.54;80.49
31239;BME280;17871;31.584;74.450;2023-04-05T00:59:27;98396.88;;;20.49;80.46
31239;BME280;17871;31.584;74.450;2023-04-05T01:02:10;98399.16;;;20.58;80.42
31239;BME280;17871;31.584;74.450;2023-04-05T01:04:50;98405.38;;;20.54;80.06
31239;BME280;17871;31.584;74.450;2023-04-05T01:10:02;98410.59;;;20.54;80.26
31239;BME280;17871;31.584;74.450;2023-04-05T01:12:36;98422.63;;;20.55;80.16
31239;BME280;17871;31.584;74.450;2023-04-05T01:15:07;98415.81;;;20.53;79.90
31239;BME280;17871;31.584;74.450;2023-04-05T01:17:36;98414.84;;;20.55;79.78
31239;BME280;17871;31.584;74.450;2023-04-05T01:20:09;98426.72;;;20.64;80.07
31239;BME280;17871;31.584;74.450;2023-04-05T01:31:22;98441.34;;;20.66;79.03
31239;BME280;17871;31.584;74.450;2023-04-05T01:37:01;98449.13;;;20.93;79.47
31239;BME280;17871;31.584;74.450;2023-04-05T01:39:31;98449.44;;;20.84;78.99
31239;BME280;17871;31.584;74.450;2023-04-05T01:42:04;98458.97;;;20.83;78.85
31239;BME280;17871;31.584;74.450;2023-04-05T01:44:33;98459.72;;;20.60;79.12
31239;BME280;17871;31.584;74.450;2023-04-05T01:47:02;98455.00;;;20.71;78.82
31239;BME280;17871;31.584;74.450;2023-04-05T01:49:31;98461.34;;;20.63;78.48
31239;BME280;17871;31.584;74.450;2023-04-05T01:52:00;98459.72;;;20.87;78.31
31239;BME280;17871;31.584;74.450;2023-04-05T01:54:29;98462.72;;;20.75;78.48
31239;BME280;17871;31.584;74.450;2023-04-05T01:56:58;98461.69;;;20.79;78.25
31239;BME280;17871;31.584;74.450;2023-04-05T01:59:28;98462.63;;;20.78;77.98
31239;BME280;17871;31.584;74.450;2023-04-05T02:01:58;98467.16;;;20.71;77.99
31239;BME280;17871;31.584;74.450;2023-04-05T02:04:27;98473.75;;;21.07;77.42
31239;BME280;17871;31.584;74.450;2023-04-05T02:06:56;98472.50;;;20.93;77.42
31239;BME280;17871;31.584;74.450;2023-04-05T02:09:26;98470.00;;;20.90;77.07
31239;BME280;17871;31.584;74.450;2023-04-05T02:11:54;98483.09;;;21.13;76.90
31239;BME280;17871;31.584;74.450;2023-04-05T02:14:24;98484.81;;;21.14;76.81
31239;BME280;17871;31.584;74.450;2023-04-05T02:16:53;98487.44;;;21.12;76.80
31239;BME280;17871;31.584;74.450;2023-04-05T02:19:24;98486.09;;;21.27;77.17
31239;BME280;17871;31.584;74.450;2023-04-05T02:21:53;98497.91;;;21.36;76.48
31239;BME280;17871;31.584;74.450;2023-04-05T02:24:22;98495.47;;;21.05;77.07
31239;BME280;17871;31.584;74.450;2023-04-05T02:26:51;98501.69;;;21.27;76.49
31239;BME280;17871;31.584;74.450;2023-04-05T02:29:20;98495.94;;;21.42;76.92
31239;BME280;17871;31.584;74.450;2023-04-05T02:31:49;98500.31;;;21.66;76.27
31239;BME280;17871;31.584;74.450;2023-04-05T02:34:18;98507.88;;;21.72;76.13
31239;BME280;17871;31.584;74.450;2023-04-05T02:36:52;98507.84;;;21.49;77.06
31239;BME280;17871;31.584;74.450;2023-04-05T02:39:21;98523.16;;;21.32;76.80
31239;BME280;17871;31.584;74.450;2023-04-05T02:41:50;98517.75;;;21.38;77.47
31239;BME280;17871;31.584;74.450;2023-04-05T02:44:19;98512.06;;;21.52;77.08
31239;BME280;17871;31.584;74.450;2023-04-05T02:46:52;98526.19;;;21.69;77.22
31239;BME280;17871;31.584;74.450;2023-04-05T02:49:27;98530.56;;;21.69;77.37
31239;BME280;17871;31.584;74.450;2023-04-05T02:51:58;98536.09;;;21.60;76.95
31239;BME280;17871;31.584;74.450;2023-04-05T02:54:28;98532.44;;;21.64;76.72
31239;BME280;17871;31.584;74.450;2023-04-05T02:57:01;98534.13;;;21.66;77.41
31239;BME280;17871;31.584;74.450;2023-04-05T02:59:40;98539.94;;;21.98;76.71
31239;BME280;17871;31.584;74.450;2023-04-05T03:02:12;98542.72;;;22.16;77.13
31239;BME280;17871;31.584;74.450;2023-04-05T03:04:41;98546.78;;;22.23;76.69
31239;BME280;17871;31.584;74.450;2023-04-05T03:07:15;98548.75;;;21.94;77.96
31239;BME280;17871;31.584;74.450;2023-04-05T03:09:47;98550.59;;;22.15;77.70
31239;BME280;17871;31.584;74.450;2023-04-05T03:12:17;98550.34;;;22.21;77.63
31239;BME280;17871;31.584;74.450;2023-04-05T03:14:46;98561.84;;;22.39;76.92
31239;BME280;17871;31.584;74.450;2023-04-05T03:17:19;98559.13;;;22.42;76.63
31239;BME280;17871;31.584;74.450;2023-04-05T03:19:58;98562.22;;;22.51;75.73
31239;BME280;17871;31.584;74.450;2023-04-05T03:22:28;98567.84;;;22.41;75.29
31239;BME280;17871;31.584;74.450;2023-04-05T03:24:57;98575.00;;;22.57;75.72
31239;BME280;17871;31.584;74.450;2023-04-05T03:27:27;98574.13;;;22.35;75.67
31239;BME280;17871;31.584;74.450;2023-04-05T03:30:04;98572.88;;;22.68;75.66
31239;BME280;17871;31.584;74.450;2023-04-05T03:32:38;98577.06;;;22.94;75.84
31239;BME280;17871;31.584;74.450;2023-04-05T03:35:15;98569.72;;;23.04;76.55
31239;BME280;17871;31.584;74.450;2023-04-05T03:37:47;98568.88;;;23.03;76.11
31239;BME280;17871;31.584;74.450;2023-04-05T03:40:16;98568.75;;;23.06;75.18
31239;BME280;17871;31.584;74.450;2023-04-05T03:42:47;98569.19;;;23.17;75.23
31239;BME280;17871;31.584;74.450;2023-04-05T03:45:16;98582.31;;;23.36;75.60
31239;BME280;17871;31.584;74.450;2023-04-05T03:47:52;98581.72;;;23.30;75.11
31239;BME280;17871;31.584;74.450;2023-04-05T03:50:22;98583.00;;;23.41;75.22
31239;BME280;17871;31.584;74.450;2023-04-05T03:52:52;98585.94;;;23.54;74.57
31239;BME280;17871;31.584;74.450;2023-04-05T03:55:22;98581.72;;;23.30;74.03
31239;BME280;17871;31.584;74.450;2023-04-05T03:57:52;98574.84;;;23.69;74.92
31239;BME280;17871;31.584;74.450;2023-04-05T04:00:26;98585.88;;;23.75;74.04
31239;BME280;17871;31.584;74.450;2023-04-05T04:03:09;98576.59;;;23.89;74.12
31239;BME280;17871;31.584;74.450;2023-04-05T04:05:41;98575.03;;;23.85;73.95
31239;BME280;17871;31.584;74.450;2023-04-05T04:08:11;98584.56;;;24.06;74.33
31239;BME280;17871;31.584;74.450;2023-04-05T04:10:40;98582.94;;;24.03;74.74
31239;BME280;17871;31.584;74.450;2023-04-05T04:13:23;98587.63;;;24.15;73.83
31239;BME280;17871;31.584;74.450;2023-04-05T04:16:02;98589.50;;;24.32;73.80
31239;BME280;17871;31.584;74.450;2023-04-05T04:18:52;98596.84;;;24.43;72.81
31239;BME280;17871;31.584;74.450;2023-04-05T04:21:36;98597.34;;;24.51;71.55
31239;BME280;17871;31.584;74.450;2023-04-05T04:24:19;98592.66;;;24.57;70.66
31239;BME280;17871;31.584;74.450;2023-04-05T04:26:48;98596.09;;;24.59;69.85
31239;BME280;17871;31.584;74.450;2023-04-05T04:29:37;98588.16;;;24.79;71.19
31239;BME280;17871;31.584;74.450;2023-04-05T04:32:32;98589.56;;;24.87;69.24
31239;BME280;17871;31.584;74.450;2023-04-05T04:35:36;98595.50;;;24.90;69.77
31239;BME280;17871;31.584;74.450;2023-04-05T04:38:29;98600.25;;;25.01;69.21
31239;BME280;17871;31.584;74.450;2023-04-05T04:41:14;98601.19;;;25.17;67.10
31239;BME280;17871;31.584;74.450;2023-04-05T04:44:05;98600.22;;;25.37;67.30
31239;BME280;17871;31.584;74.450;2023-04-05T04:47:01;98601.47;;;25.47;67.99
31239;BME280;17871;31.584;74.450;2023-04-05T04:49:45;98604.44;;;25.39;67.52
31239;BME280;17871;31.584;74.450;2023-04-05T04:52:14;98607.09;;;25.56;67.30
31239;BME280;17871;31.584;74.450;2023-04-05T04:54:43;98600.59;;;25.65;66.35
31239;BME280;17871;31.584;74.450;2023-04-05T04:57:14;98604.72;;;25.69;65.98
31239;BME280;17871;31.584;74.450;2023-04-05T04:59:43;98607.59;;;25.82;66.48
31239;BME280;17871;31.584;74.450;2023-04-05T05:02:12;98596.09;;;25.50;63.65
31239;BME280;17871;31.584;74.450;2023-04-05T05:04:41;98602.34;;;25.82;62.70
31239;BME280;17871;31.584;74.450;2023-04-05T05:07:11;98592.97;;;26.10;61.44
31239;BME280;17871;31.584;74.450;2023-04-05T05:09:40;98591.22;;;26.11;62.87
31239;BME280;17871;31.584;74.450;2023-04-05T05:12:09;98591.34;;;26.25;61.41
31239;BME280;17871;31.584;74.450;2023-04-05T05:14:37;98591.69;;;26.35;60.90
31239;BME280;17871;31.584;74.450;2023-04-05T05:17:06;98592.22;;;26.41;60.65
31239;BME280;17871;31.584;74.450;2023-04-05T05:19:35;98588.84;;;26.39;59.94
31239;BME280;17871;31.584;74.450;2023-04-05T05:22:05;98577.63;;;26.68;59.22
31239;BME280;17871;31.584;74.450;2023-04-05T05:24:33;98579.06;;;26.58;59.27
31239;BME280;17871;31.584;74.450;2023-04-05T05:27:02;98581.09;;;26.53;58.18
31239;BME280;17871;31.584;74.450;2023-04-05T05:29:31;98578.50;;;26.85;58.11
31239;BME280;17871;31.584;74.450;2023-04-05T05:32:01;98576.19;;;26.78;56.41
31239;BME280;17871;31.584;74.450;2023-04-05T05:34:30;98576.19;;;27.10;53.33
31239;BME280;17871;31.584;74.450;2023-04-05T05:36:59;98571.13;;;27.07;57.48
31239;BME280;17871;31.584;74.450;2023-04-05T05:39:28;98565.88;;;27.07;56.41
31239;BME280;17871;31.584;74.450;2023-04-05T05:41:57;98564.28;;;26.89;58.26
31239;BME280;17871;31.584;74.450;2023-04-05T05:44:27;98560.72;;;27.35;58.21
31239;BME280;17871;31.584;74.450;2023-04-05T05:46:56;98557.41;;;27.47;57.55
31239;BME280;17871;31.584;74.450;2023-04-05T05:49:26;98556.66;;;27.45;57.90
31239;BME280;17871;31.584;74.450;2023-04-05T05:51:55;98568.31;;;27.55;56.33
31239;BME280;17871;31.584;74.450;2023-04-05T05:54:24;98561.31;;;27.70;57.43
31239;BME280;17871;31.584;74.450;2023-04-05T05:56:54;98564.59;;;27.59;55.95
31239;BME280;17871;31.584;74.450;2023-04-05T05:59:23;98557.47;;;27.90;54.59
31239;BME280;17871;31.584;74.450;2023-04-05T06:01:53;98553.00;;;28.06;52.68
31239;BME280;17871;31.584;74.450;2023-04-05T06:04:23;98551.81;;;28.11;55.01
31239;BME280;17871;31.584;74.450;2023-04-05T06:06:52;98554.16;;;28.16;53.21
31239;BME280;17871;31.584;74.450;2023-04-05T06:09:22;98554.84;;;27.75;49.05
31239;BME280;17871;31.584;74.450;2023-04-05T06:11:51;98561.16;;;28.01;49.47
31239;BME280;17871;31.584;74.450;2023-04-05T06:14:23;98565.03;;;27.96;46.68
31239;BME280;17871;31.584;74.450;2023-04-05T06:16:52;98558.06;;;27.95;44.24
31239;BME280;17871;31.584;74.450;2023-04-05T06:19:21;98553.56;;;28.39;46.13
31239;BME280;17871;31.584;74.450;2023-04-05T06:21:55;98551.06;;;28.23;46.08
31239;BME280;17871;31.584;74.450;2023-04-05T06:24:25;98553.00;;;28.06;46.37
31239;BME280;17871;31.584;74.450;2023-04-05T06:26:54;98545.59;;;28.26;47.16
31239;BME280;17871;31.584;74.450;2023-04-05T06:29:24;98535.75;;;28.30;47.73
31239;BME280;17871;31.584;74.450;2023-04-05T06:31:53;98527.06;;;28.42;47.98
31239;BME280;17871;31.584;74.450;2023-04-05T06:34:23;98538.44;;;28.43;44.91
31239;BME280;17871;31.584;74.450;2023-04-05T06:40:51;98529.78;;;28.96;43.92
31239;BME280;17871;31.584;74.450;2023-04-05T06:43:20;98528.94;;;28.54;43.43
31239;BME280;17871;31.584;74.450;2023-04-05T06:45:49;98531.47;;;28.97;46.03
31239;BME280;17871;31.584;74.450;2023-04-05T06:48:18;98529.56;;;28.99;42.90
31239;BME280;17871;31.584;74.450;2023-04-05T06:51:01;98533.59;;;29.31;42.46
31239;BME280;17871;31.584;74.450;2023-04-05T06:53:33;98526.75;;;29.28;42.52
31239;BME280;17871;31.584;74.450;2023-04-05T06:56:02;98524.88;;;29.30;42.03
31239;BME280;17871;31.584;74.450;2023-04-05T06:58:32;98533.66;;;29.17;43.13
31239;BME280;17871;31.584;74.450;2023-04-05T07:01:01;98526.94;;;29.25;41.38
31239;BME280;17871;31.584;74.450;2023-04-05T07:03:32;98514.34;;;29.30;42.67
31239;BME280;17871;31.584;74.450;2023-04-05T07:06:01;98513.28;;;29.33;40.74
31239;BME280;17871;31.584;74.450;2023-04-05T07:08:31;98510.75;;;29.44;40.70
31239;BME280;17871;31.584;74.450;2023-04-05T07:11:00;98498.34;;;29.46;40.90
31239;BME280;17871;31.584;74.450;2023-04-05T07:13:31;98497.41;;;29.60;40.08
31239;BME280;17871;31.584;74.450;2023-04-05T07:16:01;98498.69;;;29.67;39.63
31239;BME280;17871;31.584;74.450;2023-04-05T07:18:30;98486.53;;;29.64;39.47
31239;BME280;17871;31.584;74.450;2023-04-05T07:20:59;98485.09;;;29.85;38.39
31239;BME280;17871;31.584;74.450;2023-04-05T07:23:29;98481.09;;;29.80;39.80
31239;BME280;17871;31.584;74.450;2023-04-05T07:26:00;98492.88;;;29.74;38.58
31239;BME280;17871;31.584;74.450;2023-04-05T07:28:34;98486.75;;;29.61;37.64
31239;BME280;17871;31.584;74.450;2023-04-05T07:31:05;98486.81;;;29.87;39.21
31239;BME280;17871;31.584;74.450;2023-04-05T07:33:34;98482.16;;;29.90;40.80
31239;BME280;17871;31.584;74.450;2023-04-05T07:36:03;98482.53;;;29.71;40.49
31239;BME280;17871;31.584;74.450;2023-04-05T07:38:32;98478.31;;;29.81;39.37
31239;BME280;17871;31.584;74.450;2023-04-05T07:41:04;98465.44;;;30.15;40.62
31239;BME280;17871;31.584;74.450;2023-04-05T07:43:33;98464.47;;;30.28;39.88
31239;BME280;17871;31.584;74.450;2023-04-05T07:46:05;98470.75;;;30.02;38.92
31239;BME280;17871;31.584;74.450;2023-04-05T07:48:34;98459.34;;;30.02;38.58
31239;BME280;17871;31.584;74.450;2023-04-05T07:51:05;98460.53;;;29.72;37.70
31239;BME280;17871;31.584;74.450;2023-04-05T07:53:36;98451.56;;;29.75;37.41
31239;BME280;17871;31.584;74.450;2023-04-05T07:56:09;98450.09;;;29.96;38.15
31239;BME280;17871;31.584;74.450;2023-04-05T07:58:39;98452.41;;;29.75;34.82
31239;BME280;17871;31.584;74.450;2023-04-05T08:01:09;98439.78;;;29.93;38.70
31239;BME280;17871;31.584;74.450;2023-04-05T08:03:59;98436.97;;;30.07;38.80
31239;BME280;17871;31.584;74.450;2023-04-05T08:06:29;98438.75;;;30.07;38.91
31239;BME280;17871;31.584;74.450;2023-04-05T08:08:58;98439.97;;;30.03;37.71
31239;BME280;17871;31.584;74.450;2023-04-05T08:11:28;98429.44;;;29.90;37.79
31239;BME280;17871;31.584;74.450;2023-04-05T08:13:57;98432.81;;;29.92;36.40
31239;BME280;17871;31.584;74.450;2023-04-05T08:16:26;98430.25;;;30.03;37.13
31239;BME280;17871;31.584;74.450;2023-04-05T08:18:56;98425.28;;;30.11;37.27
31239;BME280;17871;31.584;74.450;2023-04-05T08:21:25;98425.53;;;30.32;38.77
31239;BME280;17871;31.584;74.450;2023-04-05T08:23:54;98419.19;;;30.34;37.81
31239;BME280;17871;31.584;74.450;2023-04-05T08:26:24;98411.16;;;30.36;38.81
31239;BME280;17871;31.584;74.450;2023-04-05T08:28:53;98408.16;;;30.17;39.01
31239;BME280;17871;31.584;74.450;2023-04-05T08:31:22;98392.13;;;29.71;37.89
31239;BME280;17871;31.584;74.450;2023-04-05T08:33:51;98380.28;;;30.02;39.32
31239;BME280;17871;31.584;74.450;2023-04-05T08:36:23;98385.69;;;30.24;38.79
31239;BME280;17871;31.584;74.450;2023-04-05T08:38:51;98381.94;;;30.39;37.53
31239;BME280;17871;31.584;74.450;2023-04-05T08:41:22;98377.50;;;30.16;38.97
31239;BME280;17871;31.584;74.450;2023-04-05T08:43:56;98374.50;;;30.20;39.39
31239;BME280;17871;31.584;74.450;2023-04-05T08:46:26;98364.97;;;30.30;39.14
31239;BME280;17871;31.584;74.450;2023-04-05T08:48:57;98359.06;;;30.27;38.27
31239;BME280;17871;31.584;74.450;2023-04-05T08:51:26;98355.88;;;30.34;38.96
31239;BME280;17871;31.584;74.450;2023-04-05T08:53:55;98350.50;;;30.36;39.53
31239;BME280;17871;31.584;74.450;2023-04-05T08:56:26;98350.34;;;30.50;40.12
31239;BME280;17871;31.584;74.450;2023-04-05T08:59:09;98349.34;;;30.40;38.17
31239;BME280;17871;31.584;74.450;2023-04-05T09:01:43;98340.63;;;30.51;38.00
31239;BME280;17871;31.584;74.450;2023-04-05T09:04:28;98343.63;;;30.46;38.06
31239;BME280;17871;31.584;74.450;2023-04-05T09:07:00;98340.47;;;30.41;39.07
31239;BME280;17871;31.584;74.450;2023-04-05T09:09:32;98339.84;;;30.37;38.80
31239;BME280;17871;31.584;74.450;2023-04-05T09:12:04;98340.47;;;30.41;39.17
31239;BME280;17871;31.584;74.450;2023-04-05T09:14:37;98334.28;;;30.53;39.16
31239;BME280;17871;31.584;74.450;2023-04-05T09:17:07;98331.53;;;30.55;39.38
31239;BME280;17871;31.584;74.450;2023-04-05T09:19:36;98332.63;;;30.52;39.37
31239;BME280;17871;31.584;74.450;2023-04-05T09:22:06;98330.59;;;30.32;38.93
31239;BME280;17871;31.584;74.450;2023-04-05T09:24:44;98327.56;;;30.49;39.99
31239;BME280;17871;31.584;74.450;2023-04-05T09:27:19;98331.63;;;30.42;39.81
31239;BME280;17871;31.584;74.450;2023-04-05T09:29:56;98325.69;;;30.38;38.30
31239;BME280;17871;31.584;74.450;2023-04-05T09:32:26;98323.41;;;30.34;37.38
31239;BME280;17871;31.584;74.450;2023-04-05T09:35:01;98311.28;;;30.08;38.04
31239;BME280;17871;31.584;74.450;2023-04-05T09:37:35;98306.34;;;30.27;39.15
31239;BME280;17871;31.584;74.450;2023-04-05T09:40:05;98303.03;;;30.36;37.65
31239;BME280;17871;31.584;74.450;2023-04-05T09:42:44;98298.31;;;30.28;37.64
31239;BME280;17871;31.584;74.450;2023-04-05T09:45:16;98299.66;;;30.34;37.49
31239;BME280;17871;31.584;74.450;2023-04-05T09:47:54;98302.03;;;30.26;37.95
31239;BME280;17871;31.584;74.450;2023-04-05T09:50:25;98295.13;;;30.36;39.07
31239;BME280;17871;31.584;74.450;2023-04-05T09:53:09;98288.16;;;30.35;38.47
31239;BME280;17871;31.584;74.450;2023-04-05T09:55:45;98284.16;;;30.42;38.88
31239;BME280;17871;31.584;74.450;2023-04-05T09:58:21;98291.69;;;30.47;37.83
31239;BME280;17871;31.584;74.450;2023-04-05T10:00:50;98284.47;;;30.14;37.70
31239;BME280;17871;31.584;74.450;2023-04-05T10:03:48;98273.38;;;30.45;38.83
31239;BME280;17871;31.584;74.450;2023-04-05T10:10:24;98275.06;;;30.57;38.33
31239;BME280;17871;31.584;74.450;2023-04-05T10:12:55;98278.66;;;30.45;38.19
31239;BME280;17871;31.584;74.450;2023-04-05T10:18:59;98270.63;;;30.23;39.07
31239;BME280;17871;31.584;74.450;2023-04-05T10:21:35;98263.72;;;30.33;38.88
31239;BME280;17871;31.584;74.450;2023-04-05T10:26:56;98243.00;;;30.40;39.26
31239;BME280;17871;31.584;74.450;2023-04-05T10:29:42;98248.88;;;30.43;38.80
31239;BME280;17871;31.584;74.450;2023-04-05T10:32:29;98234.97;;;30.41;38.50
31239;BME280;17871;31.584;74.450;2023-04-05T10:35:19;98241.53;;;30.35;38.30
31239;BME280;17871;31.584;74.450;2023-04-05T10:40:31;98235.84;;;30.42;38.00
31239;BME280;17871;31.584;74.450;2023-04-05T10:43:02;98230.75;;;30.38;38.06
31239;BME280;17871;31.584;74.450;2023-04-05T10:45:32;98228.09;;;30.27;39.09
31239;BME280;17871;31.584;74.450;2023-04-05T10:50:43;98244.13;;;30.24;38.69
31239;BME280;17871;31.584;74.450;2023-04-05T10:53:15;98229.84;;;30.16;38.62
31239;BME280;17871;31.584;74.450;2023-04-05T10:55:44;98212.34;;;30.15;38.52
31239;BME280;17871;31.584;74.450;2023-04-05T10:58:14;98218.78;;;30.00;38.43
31239;BME280;17871;31.584;74.450;2023-04-05T11:00:46;98210.88;;;30.11;39.26
31239;BME280;17871;31.584;74.450;2023-04-05T11:03:41;98212.19;;;30.05;38.41
31239;BME280;17871;31.584;74.450;2023-04-05T11:09:20;98208.25;;;30.00;39.82
31239;BME280;17871;31.584;74.450;2023-04-05T11:11:50;98210.81;;;29.89;39.77
31239;BME280;17871;31.584;74.450;2023-04-05T11:14:24;98222.53;;;29.84;39.83
31239;BME280;17871;31.584;74.450;2023-04-05T11:16:54;98229.91;;;29.79;39.90
31239;BME280;17871;31.584;74.450;2023-04-05T11:22:24;98240.56;;;29.78;39.41
31239;BME280;17871;31.584;74.450;2023-04-05T11:24:59;98246.91;;;29.75;39.01
31239;BME280;17871;31.584;74.450;2023-04-05T11:27:33;98238.13;;;29.51;40.06
31239;BME280;17871;31.584;74.450;2023-04-05T11:30:05;98236.00;;;29.56;39.98
31239;BME280;17871;31.584;74.450;2023-04-05T11:32:41;98239.38;;;29.58;40.28
31239;BME280;17871;31.584;74.450;2023-04-05T11:35:18;98236.00;;;29.56;40.77
31239;BME280;17871;31.584;74.450;2023-04-05T11:38:05;98224.91;;;29.40;41.39
31239;BME280;17871;31.584;74.450;2023-04-05T11:40:37;98226.69;;;29.40;42.03
31239;BME280;17871;31.584;74.450;2023-04-05T11:43:11;98215.00;;;29.31;41.51
31239;BME280;17871;31.584;74.450;2023-04-05T11:45:40;98214.72;;;29.23;42.23
31239;BME280;17871;31.584;74.450;2023-04-05T11:48:12;98208.91;;;29.18;42.16
31239;BME280;17871;31.584;74.450;2023-04-05T11:50:42;98210.09;;;29.14;42.05
31239;BME280;17871;31.584;74.450;2023-04-05T11:53:16;98217.78;;;29.17;42.50
31239;BME280;17871;31.584;74.450;2023-04-05T11:55:48;98211.25;;;29.10;43.08
31239;BME280;17871;31.584;74.450;2023-04-05T11:58:23;98211.06;;;29.00;43.41
31239;BME280;17871;31.584;74.450;2023-04-05T12:01:00;98205.41;;;28.94;44.17
31239;BME280;17871;31.584;74.450;2023-04-05T12:03:30;98204.22;;;28.85;44.57
31239;BME280;17871;31.584;74.450;2023-04-05T12:06:01;98206.06;;;28.84;45.15
31239;BME280;17871;31.584;74.450;2023-04-05T12:08:43;98213.19;;;28.82;44.69
31239;BME280;17871;31.584;74.450;2023-04-05T12:11:27;98221.22;;;28.81;45.88
31239;BME280;17871;31.584;74.450;2023-04-05T12:14:00;98238.22;;;28.75;45.79
31239;BME280;17871;31.584;74.450;2023-04-05T12:16:29;98241.50;;;28.66;46.00
31239;BME280;17871;31.584;74.450;2023-04-05T12:18:59;98249.66;;;28.62;46.33
31239;BME280;17871;31.584;74.450;2023-04-05T12:21:28;98251.13;;;28.53;46.30
31239;BME280;17871;31.584;74.450;2023-04-05T12:23:57;98269.03;;;28.48;45.89
31239;BME280;17871;31.584;74.450;2023-04-05T12:26:27;98276.50;;;28.42;45.94
31239;BME280;17871;31.584;74.450;2023-04-05T12:29:03;98286.81;;;28.45;46.47
31239;BME280;17871;31.584;74.450;2023-04-05T12:31:43;98291.41;;;28.41;46.52
31239;BME280;17871;31.584;74.450;2023-04-05T12:34:14;98304.53;;;28.28;46.03
31239;BME280;17871;31.584;74.450;2023-04-05T12:36:44;98307.88;;;28.18;45.71
31239;BME280;17871;31.584;74.450;2023-04-05T12:39:16;98305.88;;;28.21;45.66
31239;BME280;17871;31.584;74.450;2023-04-05T12:41:55;98304.00;;;28.36;45.93
31239;BME280;17871;31.584;74.450;2023-04-05T12:44:30;98301.06;;;28.28;46.11
31239;BME280;17871;31.584;74.450;2023-04-05T12:47:02;98320.56;;;28.11;45.78
31239;BME280;17871;31.584;74.450;2023-04-05T12:49:38;98309.94;;;28.13;45.67
31239;BME280;17871;31.584;74.450;2023-04-05T12:52:07;98315.22;;;27.99;45.74
31239;BME280;17871;31.584;74.450;2023-04-05T12:54:37;98324.44;;;27.92;46.24
31239;BME280;17871;31.584;74.450;2023-04-05T12:57:06;98331.66;;;27.88;47.31
31239;BME280;17871;31.584;74.450;2023-04-05T12:59:39;98330.53;;;27.92;47.61
31239;BME280;17871;31.584;74.450;2023-04-05T13:02:08;98330.56;;;27.78;48.21
31239;BME280;17871;31.584;74.450;2023-04-05T13:04:37;98327.50;;;27.71;47.95
31239;BME280;17871;31.584;74.450;2023-04-05T13:07:06;98335.00;;;27.63;48.85
31239;BME280;17871;31.584;74.450;2023-04-05T13:09:35;98349.28;;;27.59;49.07
31239;BME280;17871;31.584;74.450;2023-04-05T13:12:04;98351.41;;;27.67;49.62
31239;BME280;17871;31.584;74.450;2023-04-05T13:14:34;98361.91;;;27.67;49.85
31239;BME280;17871;31.584;74.450;2023-04-05T13:17:02;98360.78;;;27.57;50.31
31239;BME280;17871;31.584;74.450;2023-04-05T13:19:31;98366.22;;;27.54;50.08
31239;BME280;17871;31.584;74.450;2023-04-05T13:22:00;98376.81;;;27.38;49.53
31239;BME280;17871;31.584;74.450;2023-04-05T13:24:29;98367.91;;;27.41;49.54
31239;BME280;17871;31.584;74.450;2023-04-05T13:26:58;98395.09;;;27.40;50.35
31239;BME280;17871;31.584;74.450;2023-04-05T13:29:27;98405.13;;;27.33;50.46
31239;BME280;17871;31.584;74.450;2023-04-05T13:31:56;98408.88;;;27.29;50.80
31239;BME280;17871;31.584;74.450;2023-04-05T13:34:25;98412.22;;;27.31;51.20
31239;BME280;17871;31.584;74.450;2023-04-05T13:36:54;98418.88;;;27.22;51.00
31239;BME280;17871;31.584;74.450;2023-04-05T13:39:23;98434.84;;;27.04;51.28
31239;BME280;17871;31.584;74.450;2023-04-05T13:41:52;98475.84;;;26.91;51.31
31239;BME280;17871;31.584;74.450;2023-04-05T13:44:21;98485.25;;;26.48;50.43
31239;BME280;17871;31.584;74.450;2023-04-05T13:46:50;98492.78;;;26.38;49.78
31239;BME280;17871;31.584;74.450;2023-04-05T13:49:19;98507.47;;;25.76;49.33
31239;BME280;17871;31.584;74.450;2023-04-05T13:51:48;98515.34;;;25.42;50.72
31239;BME280;17871;31.584;74.450;2023-04-05T13:54:17;98519.63;;;24.92;51.73
31239;BME280;17871;31.584;74.450;2023-04-05T13:56:46;98531.63;;;24.96;52.29